Robbinsville, North Carolina
Current Conditions -  °F | °C
As of 11:35 AM on Thursday 30 Oct 2014 (Local Time) from KRHP Reporting Station
Clear Clear  
Wind Chill: 51°   Ceiling: Unl
Heat Index: 51°   Visibility: 10mi
Dew Point: 44°   Wind: 5mph
Humidity: 78%   Direction: 230°SW
Pressure: 30.09"   Gusts: NA
Location:  35.32°N, 83.81°W
Report Text: KRHP 301535Z AUTO 23004KT 10SM CLR 10/07 A3009 RMK AO2 T01040067
Loading
Personal Weather Stations






























Interactive Weather Map
Tropical Storm Tracking
New forecast layout! Learn more

10-Day Weather Forecast

Advertisements
Track Severe Weather on mobile